Time;durP1;ratioP1;P1;durP2;ratioP2;P2;SDS_P1;SDS_P2;PMS_P1;PMS_P2;Temp;Humidity;BMP_temperature;BMP_pressure;BME280_temperature;BME280_humidity;BME280_pressure;Samples;Min_cycle;Max_cycle;Signal;HPM_P1;HPM_P2
2023/11/10 00:02:39;;;;;;;3.72;3.17;;;;;;;;;;6258157;28;20291;-69
2023/11/10 00:05:44;;;;;;;3.20;3.10;;;;;;;;;;6258676;28;20287;-70
2023/11/10 00:08:48;;;;;;;2.78;2.78;;;;;;;;;;6258150;28;20299;-70
2023/11/10 00:11:52;;;;;;;3.70;3.58;;;;;;;;;;6278456;28;20290;-70
2023/11/10 00:14:57;;;;;;;3.85;3.70;;;;;;;;;;6282661;28;20475;-70
2023/11/10 00:18:01;;;;;;;3.92;3.58;;;;;;;;;;6282451;28;20296;-70
2023/11/10 00:21:06;;;;;;;3.25;3.25;;;;;;;;;;6282681;28;20584;-69
2023/11/10 00:24:12;;;;;;;3.78;3.65;;;;;;;;;;6282495;28;20591;-70
2023/11/10 00:27:16;;;;;;;3.63;3.53;;;;;;;;;;6282866;28;20291;-70
2023/11/10 00:30:20;;;;;;;4.07;3.78;;;;;;;;;;6307681;28;20311;-70
2023/11/10 00:33:25;;;;;;;4.07;3.78;;;;;;;;;;6306064;28;20305;-71
2023/11/10 00:36:31;;;;;;;3.38;3.28;;;;;;;;;;6306384;28;20282;-69
2023/11/10 00:39:35;;;;;;;3.60;3.50;;;;;;;;;;6305377;28;20306;-70
2023/11/10 00:42:39;;;;;;;3.10;2.97;;;;;;;;;;6306782;28;20291;-71
2023/11/10 00:45:43;;;;;;;4.32;3.70;;;;;;;;;;6306910;28;20324;-71
2023/11/10 00:48:47;;;;;;;3.50;3.40;;;;;;;;;;6306872;28;20294;-69
2023/11/10 00:51:52;;;;;;;3.40;3.35;;;;;;;;;;6303343;28;20283;-69
2023/11/10 00:54:56;;;;;;;3.90;3.80;;;;;;;;;;6305648;28;20630;-70
2023/11/10 00:58:00;;;;;;;3.83;3.72;;;;;;;;;;6306713;28;20326;-69
2023/11/10 01:01:04;;;;;;;3.70;3.50;;;;;;;;;;6306807;28;20302;-70
2023/11/10 01:04:08;;;;;;;4.32;4.10;;;;;;;;;;6306056;28;20306;-71
2023/11/10 01:07:14;;;;;;;4.28;4.05;;;;;;;;;;6306665;28;20298;-71
2023/11/10 01:10:18;;;;;;;5.00;4.60;;;;;;;;;;6298527;28;20290;-70
2023/11/10 01:13:21;;;;;;;5.07;4.63;;;;;;;;;;6281285;28;20291;-70
2023/11/10 01:16:28;;;;;;;6.20;4.78;;;;;;;;;;6281510;28;20306;-69
2023/11/10 01:19:33;;;;;;;4.95;4.53;;;;;;;;;;6280055;28;20382;-71
2023/11/10 01:22:40;;;;;;;5.20;4.90;;;;;;;;;;6281075;28;20295;-71
2023/11/10 01:25:44;;;;;;;4.95;4.63;;;;;;;;;;6279946;28;20302;-70
2023/11/10 01:28:47;;;;;;;5.47;5.13;;;;;;;;;;6281036;28;20298;-70
2023/11/10 01:31:51;;;;;;;4.97;4.75;;;;;;;;;;6281008;28;20299;-70
2023/11/10 01:34:56;;;;;;;6.38;5.07;;;;;;;;;;6279528;28;20575;-70
2023/11/10 01:38:01;;;;;;;5.20;4.70;;;;;;;;;;6279021;28;20434;-70
2023/11/10 01:41:05;;;;;;;6.18;5.47;;;;;;;;;;6280998;28;20311;-69
2023/11/10 01:44:10;;;;;;;5.93;5.53;;;;;;;;;;6279238;28;20314;-69
2023/11/10 01:47:14;;;;;;;10.45;6.43;;;;;;;;;;6280023;28;20303;-70
2023/11/10 01:50:18;;;;;;;6.15;5.75;;;;;;;;;;6280231;28;20337;-69
2023/11/10 01:53:23;;;;;;;6.53;5.93;;;;;;;;;;6278354;28;20291;-70
2023/11/10 01:56:27;;;;;;;6.63;5.85;;;;;;;;;;6280547;28;20564;-70
2023/11/10 01:59:32;;;;;;;5.90;5.40;;;;;;;;;;6279034;28;20552;-71
2023/11/10 02:02:36;;;;;;;5.95;5.55;;;;;;;;;;6278886;28;20298;-70
2023/11/10 02:05:40;;;;;;;6.20;5.70;;;;;;;;;;6279036;28;20291;-70
2023/11/10 02:08:46;;;;;;;6.07;5.47;;;;;;;;;;6279347;28;20291;-70
2023/11/10 02:11:50;;;;;;;5.57;5.22;;;;;;;;;;6300307;28;20289;-69
2023/11/10 02:14:54;;;;;;;5.93;5.18;;;;;;;;;;6304391;28;20306;-71
2023/11/10 02:17:57;;;;;;;5.85;5.15;;;;;;;;;;6303553;28;20393;-70
2023/11/10 02:21:01;;;;;;;5.63;5.22;;;;;;;;;;6305214;28;20377;-69
2023/11/10 02:24:08;;;;;;;5.65;5.10;;;;;;;;;;6303486;28;20309;-70
2023/11/10 02:27:14;;;;;;;6.47;5.88;;;;;;;;;;6304200;28;20270;-69
2023/11/10 02:30:18;;;;;;;6.28;5.47;;;;;;;;;;6304666;28;20294;-69
2023/11/10 02:33:23;;;;;;;6.60;5.60;;;;;;;;;;6304620;28;20306;-69
2023/11/10 02:36:28;;;;;;;7.00;6.30;;;;;;;;;;6303547;28;20278;-70
2023/11/10 02:39:33;;;;;;;6.47;5.65;;;;;;;;;;6304384;28;20313;-71
2023/11/10 02:42:38;;;;;;;6.93;5.88;;;;;;;;;;6304511;28;20283;-70
2023/11/10 02:45:42;;;;;;;6.07;5.55;;;;;;;;;;6304509;28;20281;-70
2023/11/10 02:48:46;;;;;;;5.93;5.43;;;;;;;;;;6304567;28;20290;-70
2023/11/10 02:51:49;;;;;;;5.97;5.50;;;;;;;;;;6301929;28;20298;-70
2023/11/10 02:54:53;;;;;;;6.45;5.80;;;;;;;;;;6302515;28;20301;-71
2023/11/10 02:57:58;;;;;;;5.93;5.35;;;;;;;;;;6304692;28;20286;-70
2023/11/10 03:01:03;;;;;;;7.95;5.93;;;;;;;;;;6304776;28;20302;-69
2023/11/10 03:04:07;;;;;;;6.13;5.63;;;;;;;;;;6304258;28;20302;-70
2023/11/10 03:07:11;;;;;;;6.45;5.35;;;;;;;;;;6304964;28;20299;-70
2023/11/10 03:10:14;;;;;;;6.18;5.53;;;;;;;;;;6297338;28;20339;-70
2023/11/10 03:13:20;;;;;;;5.25;4.95;;;;;;;;;;6279158;28;20394;-71
2023/11/10 03:16:24;;;;;;;5.13;4.80;;;;;;;;;;6279889;28;20295;-69
2023/11/10 03:19:27;;;;;;;4.90;4.50;;;;;;;;;;6283280;28;20295;-69
2023/11/10 03:22:32;;;;;;;5.28;4.93;;;;;;;;;;6283974;28;20283;-70
2023/11/10 03:25:36;;;;;;;4.78;4.45;;;;;;;;;;6281752;28;20490;-69
2023/11/10 03:28:43;;;;;;;6.10;4.30;;;;;;;;;;6283769;28;20291;-70
2023/11/10 03:31:47;;;;;;;4.60;4.30;;;;;;;;;;6283932;28;20374;-70
2023/11/10 03:34:51;;;;;;;4.32;4.03;;;;;;;;;;6283153;28;20302;-70
2023/11/10 03:37:55;;;;;;;4.63;4.32;;;;;;;;;;6283416;28;20294;-69
2023/11/10 03:40:59;;;;;;;4.50;4.30;;;;;;;;;;6283574;28;20286;-70
2023/11/10 03:44:05;;;;;;;4.90;4.65;;;;;;;;;;6281617;28;20318;-70
2023/11/10 03:47:09;;;;;;;4.90;4.53;;;;;;;;;;6283457;28;20489;-69
2023/11/10 03:50:13;;;;;;;5.43;5.03;;;;;;;;;;6282827;28;20298;-69
2023/11/10 03:53:17;;;;;;;5.38;4.90;;;;;;;;;;6280898;28;20545;-69
2023/11/10 03:56:21;;;;;;;4.95;4.57;;;;;;;;;;6283098;28;20314;-69
2023/11/10 03:59:26;;;;;;;4.97;4.70;;;;;;;;;;6282833;28;20322;-70
2023/11/10 04:02:30;;;;;;;4.85;4.65;;;;;;;;;;6279140;28;20465;-69
2023/11/10 04:05:33;;;;;;;5.03;4.72;;;;;;;;;;6282803;28;20310;-69
2023/11/10 04:08:37;;;;;;;4.43;4.10;;;;;;;;;;6282742;28;20326;-72
2023/11/10 04:11:41;;;;;;;5.03;4.75;;;;;;;;;;6282941;28;20290;-71
2023/11/10 04:14:46;;;;;;;4.70;4.50;;;;;;;;;;6302981;28;20298;-71
2023/11/10 04:17:50;;;;;;;5.65;4.10;;;;;;;;;;6307145;28;20472;-70
2023/11/10 04:20:56;;;;;;;4.80;4.40;;;;;;;;;;6285383;28;20290;-70
2023/11/10 04:23:59;;;;;;;5.60;5.10;;;;;;;;;;6282434;28;20343;-69
2023/11/10 04:27:04;;;;;;;4.95;4.47;;;;;;;;;;6282786;28;20439;-69
2023/11/10 04:30:10;;;;;;;5.22;4.82;;;;;;;;;;6281854;28;20318;-69
2023/11/10 04:33:14;;;;;;;5.05;4.47;;;;;;;;;;6281321;28;20299;-69
2023/11/10 04:36:18;;;;;;;5.15;4.95;;;;;;;;;;6290554;28;20263;-69
2023/11/10 04:39:22;;;;;;;5.63;5.18;;;;;;;;;;6307045;28;20293;-70
2023/11/10 04:42:26;;;;;;;5.18;4.82;;;;;;;;;;6306804;28;20432;-70
2023/11/10 04:45:31;;;;;;;5.72;5.32;;;;;;;;;;6306858;28;20290;-69
2023/11/10 04:48:35;;;;;;;5.93;5.40;;;;;;;;;;6306819;28;20560;-70
2023/11/10 04:51:38;;;;;;;5.47;5.15;;;;;;;;;;6304901;28;20301;-69
2023/11/10 04:54:45;;;;;;;8.15;6.13;;;;;;;;;;6306181;28;20494;-69
2023/11/10 04:57:49;;;;;;;6.03;5.47;;;;;;;;;;6306238;28;20282;-70
2023/11/10 05:00:54;;;;;;;6.68;6.07;;;;;;;;;;6306412;28;20484;-70
2023/11/10 05:03:58;;;;;;;5.55;5.15;;;;;;;;;;6305895;28;20298;-70
2023/11/10 05:07:02;;;;;;;6.93;6.28;;;;;;;;;;6306201;28;20325;-70
2023/11/10 05:10:06;;;;;;;7.03;6.10;;;;;;;;;;6300276;28;20290;-69
2023/11/10 05:13:10;;;;;;;7.78;6.38;;;;;;;;;;6281442;28;20502;-71
2023/11/10 05:16:16;;;;;;;8.68;6.70;;;;;;;;;;6281849;28;20303;-70
2023/11/10 05:19:20;;;;;;;7.43;6.40;;;;;;;;;;6281103;28;20287;-70
2023/11/10 05:22:23;;;;;;;7.47;6.80;;;;;;;;;;6281515;28;20302;-70
2023/11/10 05:25:28;;;;;;;7.22;6.45;;;;;;;;;;6280569;28;20290;-70
2023/11/10 05:28:32;;;;;;;7.13;6.15;;;;;;;;;;6280744;28;20310;-70
2023/11/10 05:31:37;;;;;;;8.35;6.68;;;;;;;;;;6281112;28;20307;-69
2023/11/10 05:34:41;;;;;;;7.72;6.60;;;;;;;;;;6280582;28;20306;-71
2023/11/10 05:37:45;;;;;;;7.38;6.20;;;;;;;;;;6280652;28;20290;-70
2023/11/10 05:40:48;;;;;;;10.52;6.57;;;;;;;;;;6280457;28;20310;-70
2023/11/10 05:43:52;;;;;;;8.77;7.05;;;;;;;;;;6281280;28;20307;-70
2023/11/10 05:46:58;;;;;;;9.15;6.68;;;;;;;;;;6280953;28;20291;-70
2023/11/10 05:50:01;;;;;;;8.85;7.20;;;;;;;;;;6281037;28;20298;-70
2023/11/10 05:53:05;;;;;;;10.23;7.50;;;;;;;;;;6278878;28;20301;-70
2023/11/10 05:56:09;;;;;;;12.05;7.35;;;;;;;;;;6280635;28;20287;-69
2023/11/10 05:59:13;;;;;;;9.93;7.50;;;;;;;;;;6280177;28;20294;-69
2023/11/10 06:02:18;;;;;;;9.40;8.02;;;;;;;;;;6281015;28;20603;-70
2023/11/10 06:05:23;;;;;;;11.95;8.57;;;;;;;;;;6280483;28;20556;-70
2023/11/10 06:08:27;;;;;;;11.30;8.35;;;;;;;;;;6280475;28;20303;-72
2023/11/10 06:11:31;;;;;;;13.45;8.50;;;;;;;;;;6298363;28;20483;-70
2023/11/10 06:14:51;;;;;;;12.82;8.43;;;;;;;;;;6304974;28;20513;-71
2023/11/10 06:17:56;;;;;;;15.10;7.88;;;;;;;;;;6305445;28;20314;-70
2023/11/10 06:21:00;;;;;;;14.15;8.35;;;;;;;;;;6305938;28;20307;-71
2023/11/10 06:24:05;;;;;;;13.00;8.32;;;;;;;;;;6305174;28;20302;-71
2023/11/10 06:27:09;;;;;;;12.07;8.05;;;;;;;;;;6305398;28;20615;-69
2023/11/10 06:30:14;;;;;;;12.75;8.25;;;;;;;;;;6303958;28;20603;-69
2023/11/10 06:33:20;;;;;;;11.93;8.00;;;;;;;;;;6279698;28;20299;-70
2023/11/10 06:36:23;;;;;;;13.38;8.10;;;;;;;;;;6279928;28;20275;-69
2023/11/10 06:39:27;;;;;;;16.40;8.43;;;;;;;;;;6279536;28;20299;-69
2023/11/10 06:42:33;;;;;;;11.63;7.80;;;;;;;;;;6280615;28;20303;-70
2023/11/10 06:45:37;;;;;;;14.52;7.90;;;;;;;;;;6280198;28;20290;-72
2023/11/10 06:48:42;;;;;;;12.63;7.55;;;;;;;;;;6279882;28;20291;-70
2023/11/10 06:51:46;;;;;;;15.68;7.50;;;;;;;;;;6279773;28;20298;-69
2023/11/10 06:54:50;;;;;;;18.50;8.27;;;;;;;;;;6284216;28;20290;-70
2023/11/10 06:57:58;;;;;;;14.77;7.45;;;;;;;;;;6284313;28;20306;-70
2023/11/10 07:01:02;;;;;;;12.70;7.25;;;;;;;;;;6284509;28;20302;-69
2023/11/10 07:04:07;;;;;;;15.23;7.35;;;;;;;;;;6284544;28;20306;-71
2023/11/10 07:07:12;;;;;;;14.18;7.78;;;;;;;;;;6285033;28;20324;-72
2023/11/10 07:10:16;;;;;;;14.40;7.28;;;;;;;;;;6277904;28;20319;-71
2023/11/10 07:13:20;;;;;;;10.18;6.45;;;;;;;;;;6259722;28;20303;-68
2023/11/10 07:16:26;;;;;;;11.57;6.47;;;;;;;;;;6259216;28;20599;-69
2023/11/10 07:19:31;;;;;;;11.25;6.45;;;;;;;;;;6259403;28;20576;-70
2023/11/10 07:22:35;;;;;;;11.38;6.50;;;;;;;;;;6258897;28;20588;-71
2023/11/10 07:25:39;;;;;;;10.02;6.22;;;;;;;;;;6259064;28;20287;-70
2023/11/10 07:28:42;;;;;;;9.23;6.07;;;;;;;;;;6258323;28;20440;-68
2023/11/10 07:31:46;;;;;;;10.68;6.05;;;;;;;;;;6258947;28;20292;-70
2023/11/10 07:34:51;;;;;;;8.05;5.82;;;;;;;;;;6258632;28;20295;-70
2023/11/10 07:37:55;;;;;;;7.00;6.30;;;;;;;;;;6258243;28;20296;-69
2023/11/10 07:40:59;;;;;;;6.80;5.55;;;;;;;;;;6258898;28;20291;-69
2023/11/10 07:44:03;;;;;;;7.85;5.80;;;;;;;;;;6258080;28;20296;-71
2023/11/10 07:47:07;;;;;;;8.07;5.53;;;;;;;;;;6258461;28;20287;-69
2023/11/10 07:50:13;;;;;;;5.75;5.18;;;;;;;;;;6257938;28;20447;-69
2023/11/10 07:53:16;;;;;;;9.40;5.28;;;;;;;;;;6256110;28;20299;-70
2023/11/10 07:56:20;;;;;;;7.25;5.70;;;;;;;;;;6258239;28;20352;-70
2023/11/10 07:59:24;;;;;;;5.80;5.18;;;;;;;;;;6257937;28;20323;-69
2023/11/10 08:02:28;;;;;;;5.28;4.88;;;;;;;;;;6257250;28;20476;-69
2023/11/10 08:05:33;;;;;;;4.90;4.55;;;;;;;;;;6257937;28;20303;-69
2023/11/10 08:08:37;;;;;;;4.78;4.40;;;;;;;;;;6257464;28;20299;-69
2023/11/10 08:11:42;;;;;;;4.80;4.40;;;;;;;;;;6276468;28;20334;-71
2023/11/10 08:14:57;;;;;;;3.83;3.60;;;;;;;;;;6282149;28;20480;-69
2023/11/10 08:18:01;;;;;;;3.67;3.58;;;;;;;;;;6282196;28;20599;-70
2023/11/10 08:21:07;;;;;;;4.20;4.00;;;;;;;;;;6282599;28;20291;-68
2023/11/10 08:24:11;;;;;;;3.85;3.55;;;;;;;;;;6281604;28;20298;-71
2023/11/10 08:27:14;;;;;;;3.53;3.38;;;;;;;;;;6282675;28;20239;-70
2023/11/10 08:30:19;;;;;;;3.45;3.25;;;;;;;;;;6281908;28;20311;-70
2023/11/10 08:33:24;;;;;;;3.10;3.00;;;;;;;;;;6281850;28;20302;-69
2023/11/10 08:36:32;;;;;;;2.90;2.90;;;;;;;;;;6280431;28;20474;-70
2023/11/10 08:39:36;;;;;;;3.13;3.13;;;;;;;;;;6281369;28;20294;-70
2023/11/10 08:42:41;;;;;;;3.50;3.00;;;;;;;;;;6281829;28;20472;-70
2023/11/10 08:45:46;;;;;;;3.17;3.08;;;;;;;;;;6281915;28;20544;-70
2023/11/10 08:48:50;;;;;;;3.95;3.50;;;;;;;;;;6281765;28;20299;-70
2023/11/10 08:51:55;;;;;;;3.33;3.22;;;;;;;;;;6280123;28;20724;-70
2023/11/10 08:54:59;;;;;;;4.00;3.80;;;;;;;;;;6281223;28;20345;-69
2023/11/10 08:58:03;;;;;;;6.28;4.65;;;;;;;;;;6281307;28;20299;-71
2023/11/10 09:01:07;;;;;;;4.75;4.45;;;;;;;;;;6281652;28;20287;-70
2023/11/10 09:04:11;;;;;;;8.63;5.10;;;;;;;;;;6280970;28;20306;-69
2023/11/10 09:07:28;;;;;;;5.70;5.13;;;;;;;;;;6281254;28;20291;-69
2023/11/10 09:10:32;;;;;;;5.53;5.20;;;;;;;;;;6272066;28;20295;-70
2023/11/10 09:13:36;;;;;;;5.65;5.20;;;;;;;;;;6256224;28;20369;-69
2023/11/10 09:16:40;;;;;;;7.55;6.00;;;;;;;;;;6255503;28;20434;-68
2023/11/10 09:19:44;;;;;;;8.27;6.15;;;;;;;;;;6256010;28;20394;-70
2023/11/10 09:22:49;;;;;;;9.18;6.38;;;;;;;;;;6256169;28;20319;-70
2023/11/10 09:25:55;;;;;;;6.10;5.65;;;;;;;;;;6256577;28;20299;-70
2023/11/10 09:28:59;;;;;;;6.95;6.40;;;;;;;;;;6256065;28;20296;-70
2023/11/10 09:32:03;;;;;;;7.20;6.50;;;;;;;;;;6256361;28;20479;-72
2023/11/10 09:35:09;;;;;;;8.88;7.18;;;;;;;;;;6255757;28;20311;-70
2023/11/10 09:38:17;;;;;;;10.35;6.57;;;;;;;;;;6255103;28;20311;-69
2023/11/10 09:41:23;;;;;;;9.07;7.45;;;;;;;;;;6256178;28;20317;-70
2023/11/10 09:44:27;;;;;;;12.23;6.75;;;;;;;;;;6256268;28;20300;-70
2023/11/10 09:47:32;;;;;;;7.43;6.68;;;;;;;;;;6254771;28;20299;-69
2023/11/10 09:50:37;;;;;;;11.02;7.05;;;;;;;;;;6256005;28;20299;-70
2023/11/10 09:53:42;;;;;;;7.28;6.70;;;;;;;;;;6253558;28;20303;-70
2023/11/10 09:56:47;;;;;;;8.70;7.40;;;;;;;;;;6255715;28;20299;-70
2023/11/10 09:59:52;;;;;;;11.25;7.43;;;;;;;;;;6255522;28;20304;-70
2023/11/10 10:02:56;;;;;;;7.95;6.72;;;;;;;;;;6254755;28;20291;-70
2023/11/10 10:06:00;;;;;;;8.18;7.35;;;;;;;;;;6256090;28;20335;-70
2023/11/10 10:09:06;;;;;;;8.75;6.82;;;;;;;;;;6254671;28;20236;-69
2023/11/10 10:12:11;;;;;;;9.90;6.82;;;;;;;;;;6278409;28;20299;-70
2023/11/10 10:15:26;;;;;;;10.60;6.78;;;;;;;;;;6304177;28;20286;-72
2023/11/10 10:18:29;;;;;;;6.43;5.93;;;;;;;;;;6279927;28;20303;-71
2023/11/10 10:21:41;;;;;;;8.07;6.50;;;;;;;;;;6280268;28;20482;-70
2023/11/10 10:24:48;;;;;;;6.57;5.88;;;;;;;;;;6280246;28;20591;-71
2023/11/10 10:27:53;;;;;;;6.90;6.30;;;;;;;;;;6282538;28;20291;-71
2023/11/10 10:30:57;;;;;;;6.60;5.93;;;;;;;;;;6285586;28;20290;-69
2023/11/10 10:34:04;;;;;;;7.68;6.00;;;;;;;;;;6285433;28;20290;-70
2023/11/10 10:37:09;;;;;;;6.53;5.57;;;;;;;;;;6285455;28;20298;-70
2023/11/10 10:40:15;;;;;;;5.70;5.05;;;;;;;;;;6285008;28;20302;-70
2023/11/10 10:43:19;;;;;;;6.38;5.43;;;;;;;;;;6285007;28;20600;-70
2023/11/10 10:46:23;;;;;;;6.85;5.32;;;;;;;;;;6284916;28;20322;-69
2023/11/10 10:49:27;;;;;;;5.80;4.75;;;;;;;;;;6284489;28;20296;-70
2023/11/10 10:52:34;;;;;;;7.40;5.10;;;;;;;;;;6283005;28;20283;-71
2023/11/10 10:55:40;;;;;;;4.85;4.35;;;;;;;;;;6284866;28;20298;-72
2023/11/10 10:58:44;;;;;;;11.70;4.93;;;;;;;;;;6284429;28;20303;-69
2023/11/10 11:01:50;;;;;;;5.38;4.95;;;;;;;;;;6285000;28;20302;-71
2023/11/10 11:04:59;;;;;;;6.63;4.57;;;;;;;;;;6284426;28;20307;-70
2023/11/10 11:08:14;;;;;;;4.70;4.40;;;;;;;;;;6283559;28;20564;-70
2023/11/10 11:11:38;;;;;;;5.00;4.50;;;;;;;;;;6268831;28;20295;-71
2023/11/10 11:14:46;;;;;;;4.68;4.38;;;;;;;;;;6259175;28;20296;-70
2023/11/10 11:18:29;;;;;;;4.88;4.40;;;;;;;;;;6259298;28;20299;-70
2023/11/10 11:21:32;;;;;;;4.38;4.03;;;;;;;;;;6273695;28;20287;-70
2023/11/10 11:24:36;;;;;;;4.93;4.30;;;;;;;;;;6279334;28;20478;-69
2023/11/10 11:27:42;;;;;;;6.45;4.03;;;;;;;;;;6259685;28;20336;-70
2023/11/10 11:30:46;;;;;;;5.93;4.30;;;;;;;;;;6258969;28;20370;-69
2023/11/10 11:33:52;;;;;;;4.72;4.40;;;;;;;;;;6258349;28;20335;-70
2023/11/10 11:36:57;;;;;;;4.50;3.85;;;;;;;;;;6258822;28;20295;-70
2023/11/10 11:40:02;;;;;;;4.35;4.05;;;;;;;;;;6264058;28;20246;-69
2023/11/10 11:43:13;;;;;;;4.70;4.40;;;;;;;;;;6259056;28;20303;-71
2023/11/10 11:46:17;;;;;;;4.15;3.97;;;;;;;;;;6259036;28;20358;-70
2023/11/10 11:49:21;;;;;;;5.13;3.97;;;;;;;;;;6258138;28;20295;-70
2023/11/10 11:52:25;;;;;;;4.18;4.00;;;;;;;;;;6256502;28;20311;-70
2023/11/10 11:55:29;;;;;;;3.97;3.65;;;;;;;;;;6258489;28;20327;-70
2023/11/10 11:58:35;;;;;;;5.65;4.07;;;;;;;;;;6257690;28;20300;-71
2023/11/10 12:01:39;;;;;;;3.47;3.33;;;;;;;;;;6258444;28;20307;-69
2023/11/10 12:04:43;;;;;;;3.70;3.60;;;;;;;;;;6257908;28;20488;-71
2023/11/10 12:07:48;;;;;;;4.22;3.92;;;;;;;;;;6258193;28;20301;-69
2023/11/10 12:10:52;;;;;;;7.65;3.88;;;;;;;;;;6257746;28;20595;-70
2023/11/10 12:13:57;;;;;;;3.47;3.33;;;;;;;;;;6257662;28;20320;-70
2023/11/10 12:17:01;;;;;;;4.97;3.67;;;;;;;;;;6258336;28;20291;-72
2023/11/10 12:20:09;;;;;;;3.30;3.15;;;;;;;;;;6257553;28;20328;-70
2023/11/10 12:23:14;;;;;;;3.70;2.83;;;;;;;;;;6257751;28;20287;-70
2023/11/10 12:26:18;;;;;;;3.20;3.10;;;;;;;;;;6257802;28;20289;-71
2023/11/10 12:29:29;;;;;;;3.30;3.10;;;;;;;;;;6257707;28;20303;-70
2023/11/10 12:32:33;;;;;;;4.65;3.20;;;;;;;;;;6257259;28;20287;-70
2023/11/10 12:35:39;;;;;;;3.72;3.38;;;;;;;;;;6257487;28;20302;-70
2023/11/10 12:38:43;;;;;;;5.85;3.45;;;;;;;;;;6256660;28;20312;-70
2023/11/10 12:41:47;;;;;;;3.75;3.30;;;;;;;;;;6257543;28;20300;-71
2023/11/10 12:44:57;;;;;;;3.40;3.20;;;;;;;;;;6256212;28;20303;-71
2023/11/10 12:48:01;;;;;;;5.07;3.10;;;;;;;;;;6256741;28;20551;-69
2023/11/10 12:51:11;;;;;;;3.05;2.88;;;;;;;;;;6257060;28;20295;-69
2023/11/10 12:54:15;;;;;;;2.70;2.70;;;;;;;;;;6253849;28;20299;-70
2023/11/10 12:57:19;;;;;;;2.65;2.55;;;;;;;;;;6256863;28;20337;-70
2023/11/10 13:00:26;;;;;;;2.22;2.17;;;;;;;;;;6279046;28;20437;-69
2023/11/10 13:03:29;;;;;;;5.22;2.10;;;;;;;;;;6279031;28;20565;-70
2023/11/10 13:06:33;;;;;;;1.92;1.83;;;;;;;;;;6260225;28;20287;-70
2023/11/10 13:09:37;;;;;;;2.17;2.15;;;;;;;;;;6280897;28;20401;-69
2023/11/10 13:12:41;;;;;;;2.20;2.00;;;;;;;;;;6285334;28;20302;-69
2023/11/10 13:15:48;;;;;;;1.98;1.90;;;;;;;;;;6306226;28;20285;-71
2023/11/10 13:18:52;;;;;;;2.22;2.10;;;;;;;;;;6305024;28;20551;-70
2023/11/10 13:21:56;;;;;;;3.22;2.15;;;;;;;;;;6305978;28;20294;-69
2023/11/10 13:25:00;;;;;;;2.50;2.35;;;;;;;;;;6305617;28;20294;-70
2023/11/10 13:28:06;;;;;;;2.45;2.33;;;;;;;;;;6304976;28;20295;-70
2023/11/10 13:31:12;;;;;;;4.80;2.42;;;;;;;;;;6305911;28;20287;-70
2023/11/10 13:34:31;;;;;;;2.92;2.15;;;;;;;;;;6305898;27;20294;-71
2023/11/10 13:37:36;;;;;;;2.40;2.20;;;;;;;;;;6305413;28;20364;-71
2023/11/10 13:40:40;;;;;;;3.08;2.72;;;;;;;;;;6305489;28;20326;-71
2023/11/10 13:43:43;;;;;;;2.65;2.45;;;;;;;;;;6305152;28;20294;-70
2023/11/10 13:46:48;;;;;;;3.00;2.70;;;;;;;;;;6305264;28;20603;-70
2023/11/10 13:49:53;;;;;;;2.63;2.17;;;;;;;;;;6304430;28;20294;-70
2023/11/10 13:52:56;;;;;;;8.63;2.63;;;;;;;;;;6302577;28;20298;-71
2023/11/10 13:56:01;;;;;;;2.63;2.30;;;;;;;;;;6305411;28;20294;-69
2023/11/10 13:59:06;;;;;;;2.17;2.10;;;;;;;;;;6304447;28;20374;-71
2023/11/10 14:02:11;;;;;;;3.45;2.28;;;;;;;;;;6304929;28;20301;-70
2023/11/10 14:05:15;;;;;;;3.13;2.30;;;;;;;;;;6304487;28;20321;-70
2023/11/10 14:08:19;;;;;;;2.55;1.95;;;;;;;;;;6304249;28;20333;-69
2023/11/10 14:11:24;;;;;;;4.75;2.50;;;;;;;;;;6288947;28;20282;-69
2023/11/10 14:14:29;;;;;;;4.22;2.00;;;;;;;;;;6280461;28;20296;-71
2023/11/10 14:17:35;;;;;;;3.13;2.13;;;;;;;;;;6279081;28;20492;-70
2023/11/10 14:20:38;;;;;;;3.80;2.00;;;;;;;;;;6280229;28;20227;-70
2023/11/10 14:23:43;;;;;;;2.60;1.80;;;;;;;;;;6280036;28;20295;-70
2023/11/10 14:26:46;;;;;;;3.72;2.20;;;;;;;;;;6280642;28;20448;-71
2023/11/10 14:29:51;;;;;;;3.30;2.03;;;;;;;;;;6280227;28;20497;-72
2023/11/10 14:32:56;;;;;;;5.20;2.25;;;;;;;;;;6278828;28;20294;-72
2023/11/10 14:36:01;;;;;;;5.53;2.00;;;;;;;;;;6280032;28;20474;-71
2023/11/10 14:39:06;;;;;;;5.10;2.30;;;;;;;;;;6279550;28;20447;-71
2023/11/10 14:42:10;;;;;;;1.83;1.73;;;;;;;;;;6278806;28;20236;-69
2023/11/10 14:45:20;;;;;;;6.57;2.30;;;;;;;;;;6278419;28;20318;-69
2023/11/10 14:48:29;;;;;;;4.25;2.03;;;;;;;;;;6279375;28;20346;-71
2023/11/10 14:51:42;;;;;;;2.40;2.20;;;;;;;;;;6279331;28;20295;-76
2023/11/10 14:54:47;;;;;;;3.78;2.45;;;;;;;;;;6279847;28;20453;-70
2023/11/10 14:57:51;;;;;;;3.55;2.20;;;;;;;;;;6279372;28;20303;-72
2023/11/10 15:00:55;;;;;;;3.35;2.22;;;;;;;;;;6279690;28;20470;-70
2023/11/10 15:04:04;;;;;;;2.83;2.63;;;;;;;;;;6278712;28;20311;-70
2023/11/10 15:07:10;;;;;;;5.97;2.50;;;;;;;;;;6279883;28;20310;-70
2023/11/10 15:10:14;;;;;;;7.40;2.65;;;;;;;;;;6285747;28;20370;-70
2023/11/10 15:13:18;;;;;;;9.18;2.63;;;;;;;;;;6307423;27;20298;-70
2023/11/10 15:16:21;;;;;;;2.65;2.40;;;;;;;;;;6309041;28;20290;-71
2023/11/10 15:19:26;;;;;;;6.07;2.45;;;;;;;;;;6308454;28;20298;-70
2023/11/10 15:22:31;;;;;;;6.13;2.58;;;;;;;;;;6308144;28;20374;-70
2023/11/10 15:25:38;;;;;;;6.20;2.50;;;;;;;;;;6308972;28;20291;-70
2023/11/10 15:28:41;;;;;;;9.05;2.80;;;;;;;;;;6308587;28;20297;-71
2023/11/10 15:31:54;;;;;;;8.90;2.88;;;;;;;;;;6309093;28;20342;-70
2023/11/10 15:35:00;;;;;;;7.80;2.67;;;;;;;;;;6308486;28;20503;-71
2023/11/10 15:38:05;;;;;;;4.13;2.38;;;;;;;;;;6306739;28;20473;-70
2023/11/10 15:41:08;;;;;;;5.15;2.38;;;;;;;;;;6308524;28;20227;-70
2023/11/10 15:44:12;;;;;;;4.53;2.42;;;;;;;;;;6308465;28;20500;-69
2023/11/10 15:47:16;;;;;;;5.25;2.58;;;;;;;;;;6306920;28;20302;-70
2023/11/10 15:50:22;;;;;;;13.48;2.85;;;;;;;;;;6308040;28;20576;-70
2023/11/10 15:53:26;;;;;;;9.02;2.78;;;;;;;;;;6305900;28;20294;-70
2023/11/10 15:56:30;;;;;;;5.85;2.60;;;;;;;;;;6308579;28;20303;-69
2023/11/10 15:59:34;;;;;;;4.82;2.70;;;;;;;;;;6308759;27;20449;-70
2023/11/10 16:02:38;;;;;;;4.55;2.50;;;;;;;;;;6307872;28;20294;-70
2023/11/10 16:05:43;;;;;;;6.07;3.13;;;;;;;;;;6308494;28;20378;-70
2023/11/10 16:08:47;;;;;;;5.22;3.10;;;;;;;;;;6308925;28;20366;-72
2023/11/10 16:11:52;;;;;;;8.43;3.60;;;;;;;;;;6287830;28;20477;-71
2023/11/10 16:14:56;;;;;;;5.93;2.63;;;;;;;;;;6282569;28;20326;-70
2023/11/10 16:18:00;;;;;;;7.85;3.17;;;;;;;;;;6282691;28;20311;-70
2023/11/10 16:21:06;;;;;;;3.97;2.85;;;;;;;;;;6283340;28;20303;-71
2023/11/10 16:24:10;;;;;;;14.25;4.13;;;;;;;;;;6281682;28;20562;-70
2023/11/10 16:27:14;;;;;;;3.72;2.85;;;;;;;;;;6281649;28;20291;-70
2023/11/10 16:30:18;;;;;;;6.20;3.28;;;;;;;;;;6281858;28;20358;-69
2023/11/10 16:33:21;;;;;;;6.05;3.25;;;;;;;;;;6282039;28;20283;-69
2023/11/10 16:36:26;;;;;;;9.23;4.20;;;;;;;;;;6282589;28;20367;-71
2023/11/10 16:39:32;;;;;;;6.65;4.00;;;;;;;;;;6282509;28;22612;-71
2023/11/10 16:42:39;;;;;;;9.13;4.55;;;;;;;;;;6281957;28;20291;-70
2023/11/10 16:45:42;;;;;;;14.23;4.35;;;;;;;;;;6282220;28;20298;-73
2023/11/10 16:48:47;;;;;;;7.10;4.45;;;;;;;;;;6277965;28;20529;-70
2023/11/10 16:51:53;;;;;;;8.95;5.00;;;;;;;;;;6255357;28;20395;-69
2023/11/10 16:54:57;;;;;;;6.03;4.30;;;;;;;;;;6256825;28;20473;-70
2023/11/10 16:58:01;;;;;;;9.18;5.25;;;;;;;;;;6256823;28;20368;-71
2023/11/10 17:01:06;;;;;;;8.98;4.68;;;;;;;;;;6256764;28;20307;-70
2023/11/10 17:04:10;;;;;;;6.72;4.32;;;;;;;;;;6256980;28;20323;-70
2023/11/10 17:07:16;;;;;;;10.25;4.90;;;;;;;;;;6257291;28;20287;-71
2023/11/10 17:10:20;;;;;;;7.53;4.50;;;;;;;;;;6263916;28;20295;-72
2023/11/10 17:13:29;;;;;;;14.45;5.25;;;;;;;;;;6281214;28;20303;-71
2023/11/10 17:16:33;;;;;;;9.27;4.82;;;;;;;;;;6281466;28;20295;-72
2023/11/10 17:19:37;;;;;;;9.48;5.38;;;;;;;;;;6281026;28;20235;-72
2023/11/10 17:22:42;;;;;;;12.50;5.60;;;;;;;;;;6281057;28;20294;-71
2023/11/10 17:25:46;;;;;;;12.15;5.35;;;;;;;;;;6280987;28;20776;-71
2023/11/10 17:28:52;;;;;;;10.10;5.28;;;;;;;;;;6281139;28;20308;-71
2023/11/10 17:31:55;;;;;;;10.65;5.85;;;;;;;;;;6279606;28;20475;-71
2023/11/10 17:34:59;;;;;;;13.20;7.00;;;;;;;;;;6279249;28;20470;-72
2023/11/10 17:38:05;;;;;;;10.85;6.72;;;;;;;;;;6279847;28;20298;-71
2023/11/10 17:41:08;;;;;;;17.45;6.53;;;;;;;;;;6279891;28;20494;-72
2023/11/10 17:44:12;;;;;;;13.60;6.03;;;;;;;;;;6280089;28;20307;-75
2023/11/10 17:47:17;;;;;;;11.25;6.03;;;;;;;;;;6280735;28;20485;-69
2023/11/10 17:50:21;;;;;;;7.43;5.60;;;;;;;;;;6280574;28;20302;-70
2023/11/10 17:53:26;;;;;;;8.95;5.50;;;;;;;;;;6278582;28;20299;-70
2023/11/10 17:56:31;;;;;;;12.13;5.70;;;;;;;;;;6280734;28;20295;-72
2023/11/10 17:59:35;;;;;;;6.45;5.50;;;;;;;;;;6280453;28;20306;-71
2023/11/10 18:02:38;;;;;;;8.45;5.40;;;;;;;;;;6280004;28;20581;-70
2023/11/10 18:05:42;;;;;;;8.65;5.55;;;;;;;;;;6280467;28;20306;-71
2023/11/10 18:08:47;;;;;;;7.60;5.53;;;;;;;;;;6279969;28;20387;-71
2023/11/10 18:11:51;;;;;;;12.95;6.25;;;;;;;;;;6280568;28;20290;-70
2023/11/10 18:14:55;;;;;;;10.65;5.75;;;;;;;;;;6302486;28;20286;-72
2023/11/10 18:17:58;;;;;;;10.23;5.80;;;;;;;;;;6305090;28;20315;-70
2023/11/10 18:21:05;;;;;;;12.05;5.70;;;;;;;;;;6305438;28;20290;-71
2023/11/10 18:24:13;;;;;;;11.57;6.03;;;;;;;;;;6304786;28;20313;-71
2023/11/10 18:27:21;;;;;;;11.43;5.90;;;;;;;;;;6304242;28;20271;-72